createdAt,value
2022-09-15T00:00:29.132Z,8.65
2022-09-15T00:02:56.167Z,7.45
2022-09-15T00:05:23.069Z,3.35
2022-09-15T00:07:49.605Z,6.50
2022-09-15T00:10:16.297Z,6.03
2022-09-15T00:12:43.029Z,7.10
2022-09-15T00:15:13.381Z,7.40
2022-09-15T00:17:40.107Z,6.75
2022-09-15T00:20:07.551Z,7.90
2022-09-15T00:22:34.128Z,7.22
2022-09-15T00:25:00.664Z,6.80
2022-09-15T00:27:27.242Z,7.40
2022-09-15T00:29:53.755Z,5.32
2022-09-15T00:32:20.274Z,11.07
2022-09-15T00:34:46.765Z,7.53
2022-09-15T00:37:13.267Z,6.93
2022-09-15T00:39:39.784Z,7.18
2022-09-15T00:42:06.422Z,10.13
2022-09-15T00:44:35.856Z,7.40
2022-09-15T00:47:18.831Z,10.60
2022-09-15T00:49:48.313Z,6.55
2022-09-15T00:52:29.042Z,7.72
2022-09-15T00:55:02.748Z,7.65
2022-09-15T00:58:14.097Z,7.22
2022-09-15T01:00:49.545Z,10.05
2022-09-15T01:03:16.811Z,11.52
2022-09-15T01:05:48.414Z,10.77
2022-09-15T01:08:22.493Z,13.00
2022-09-15T01:10:49.266Z,11.63
2022-09-15T01:13:15.848Z,11.38
2022-09-15T01:15:48.079Z,12.48
2022-09-15T01:18:37.409Z,13.65
2022-09-15T01:21:43.235Z,8.18
2022-09-15T01:24:47.423Z,16.98
2022-09-15T01:27:42.139Z,12.13
2022-09-15T01:30:15.657Z,9.68
2022-09-15T01:33:13.093Z,10.18
2022-09-15T01:35:55.586Z,8.38
2022-09-15T01:38:40.748Z,9.57
2022-09-15T01:41:26.267Z,9.48
2022-09-15T01:44:10.245Z,17.38
2022-09-15T01:46:42.853Z,9.68
2022-09-15T01:49:12.122Z,11.18
2022-09-15T01:51:40.835Z,15.18
2022-09-15T01:54:08.898Z,12.70
2022-09-15T01:56:37.603Z,12.15
2022-09-15T01:59:04.621Z,11.02
2022-09-15T02:01:43.841Z,15.50
2022-09-15T02:04:18.029Z,12.43
2022-09-15T02:06:56.442Z,14.45
2022-09-15T02:09:32.608Z,14.80
2022-09-15T02:12:12.491Z,9.85
2022-09-15T02:14:48.183Z,11.80
2022-09-15T02:17:19.632Z,10.07
2022-09-15T02:19:51.380Z,12.70
2022-09-15T02:22:28.016Z,11.10
2022-09-15T02:25:03.153Z,16.02
2022-09-15T02:27:34.574Z,10.25
2022-09-15T02:30:09.355Z,15.27
2022-09-15T02:32:40.870Z,14.50
2022-09-15T02:35:09.977Z,15.90
2022-09-15T02:37:38.513Z,13.32
2022-09-15T02:40:06.963Z,13.70
2022-09-15T02:42:34.454Z,14.00
2022-09-15T02:45:02.135Z,16.92
2022-09-15T02:47:28.852Z,17.95
2022-09-15T02:49:55.896Z,13.18
2022-09-15T02:52:22.613Z,21.50
2022-09-15T02:54:50.434Z,14.20
2022-09-15T02:57:16.995Z,12.63
2022-09-15T03:00:02.218Z,15.88
2022-09-15T03:02:28.921Z,17.80
2022-09-15T03:04:55.575Z,20.75
2022-09-15T03:07:22.271Z,19.08
2022-09-15T03:09:48.970Z,15.75
2022-09-15T03:12:16.041Z,12.15
2022-09-15T03:14:43.056Z,12.23
2022-09-15T03:17:09.849Z,10.85
2022-09-15T03:19:36.387Z,8.57
2022-09-15T03:22:03.244Z,6.93
2022-09-15T03:24:29.784Z,7.88
2022-09-15T03:26:56.323Z,9.82
2022-09-15T03:29:23.038Z,9.77
2022-09-15T03:31:49.875Z,6.20
2022-09-15T03:34:16.531Z,6.38
2022-09-15T03:36:43.296Z,6.82
2022-09-15T03:39:12.102Z,11.80
2022-09-15T03:44:05.227Z,7.00
2022-09-15T03:48:58.103Z,9.65
2022-09-15T03:51:25.288Z,12.98
2022-09-15T03:53:51.873Z,9.65
2022-09-15T03:56:27.550Z,6.15
2022-09-15T03:58:54.534Z,5.15
2022-09-15T04:01:21.499Z,5.07
2022-09-15T04:03:51.142Z,3.95
2022-09-15T04:06:20.332Z,4.57
2022-09-15T04:08:47.571Z,4.72
2022-09-15T04:11:14.814Z,2.33
2022-09-15T04:13:42.889Z,4.95
2022-09-15T04:16:12.625Z,2.78
2022-09-15T04:18:39.739Z,4.18
2022-09-15T04:21:10.528Z,1.77
2022-09-15T04:23:37.389Z,2.15
2022-09-15T04:26:07.152Z,3.28
2022-09-15T04:28:36.434Z,6.90
2022-09-15T04:31:15.088Z,4.10
2022-09-15T04:33:42.672Z,6.68
2022-09-15T04:36:15.434Z,4.57
2022-09-15T04:38:42.751Z,5.90
2022-09-15T04:41:10.087Z,4.10
2022-09-15T04:43:36.895Z,4.88
2022-09-15T04:46:03.602Z,4.57
2022-09-15T04:48:31.183Z,4.88
2022-09-15T04:53:28.122Z,5.28
2022-09-15T04:56:05.421Z,8.52
2022-09-15T04:58:36.578Z,5.22
2022-09-15T05:01:08.858Z,8.67
2022-09-15T05:03:37.604Z,7.65
2022-09-15T05:06:06.272Z,9.55
2022-09-15T05:08:32.988Z,11.75
2022-09-15T05:11:04.982Z,8.23
2022-09-15T05:16:06.542Z,13.07
2022-09-15T05:18:33.310Z,19.60
2022-09-15T05:21:01.609Z,16.40
2022-09-15T05:23:28.661Z,20.10
2022-09-15T05:25:59.321Z,18.55
2022-09-15T05:28:26.694Z,18.25
2022-09-15T05:30:54.745Z,22.30
2022-09-15T05:33:22.998Z,15.43
2022-09-15T05:35:53.913Z,14.52
2022-09-15T05:38:20.938Z,19.70
2022-09-15T05:40:48.228Z,25.52
2022-09-15T05:43:15.966Z,18.83
2022-09-15T05:48:13.478Z,25.02
2022-09-15T05:53:15.665Z,16.80
2022-09-15T05:55:42.542Z,14.27
2022-09-15T05:58:09.096Z,27.52
2022-09-15T06:00:36.667Z,13.15
2022-09-15T06:03:04.242Z,29.08
2022-09-15T06:05:32.414Z,20.70
2022-09-15T06:07:58.944Z,18.88
2022-09-15T06:10:25.776Z,22.08
2022-09-15T06:12:56.315Z,26.67
2022-09-15T06:15:23.776Z,24.38
2022-09-15T06:17:50.744Z,23.10
2022-09-15T06:20:18.636Z,24.33
2022-09-15T06:22:45.977Z,28.13
2022-09-15T06:25:13.463Z,21.02
2022-09-15T06:27:40.877Z,21.27
2022-09-15T06:30:10.431Z,24.25
2022-09-15T06:32:37.007Z,36.47
2022-09-15T06:35:08.009Z,22.25
2022-09-15T06:37:34.779Z,23.35
2022-09-15T06:40:02.056Z,19.52
2022-09-15T06:42:28.611Z,27.25
2022-09-15T06:44:55.131Z,17.38
2022-09-15T06:47:21.671Z,19.42
2022-09-15T06:49:48.343Z,28.70
2022-09-15T06:52:14.896Z,25.60
2022-09-15T06:54:41.426Z,21.20
2022-09-15T06:57:08.227Z,27.35
2022-09-15T06:59:34.782Z,26.45
2022-09-15T07:02:05.117Z,24.33
2022-09-15T07:04:32.015Z,27.40
2022-09-15T07:06:58.548Z,26.17
2022-09-15T07:09:25.042Z,21.10
2022-09-15T07:11:51.672Z,23.08
2022-09-15T07:14:18.161Z,26.60
2022-09-15T07:16:45.930Z,28.38
2022-09-15T07:19:12.646Z,24.95
2022-09-15T07:21:39.197Z,29.52
2022-09-15T07:24:07.437Z,24.30
2022-09-15T07:26:34.706Z,23.92
2022-09-15T07:29:05.405Z,30.52
2022-09-15T07:31:33.649Z,27.33
2022-09-15T07:34:01.244Z,23.50
2022-09-15T07:36:28.168Z,24.30
2022-09-15T07:38:54.656Z,24.27
2022-09-15T07:41:24.069Z,25.95
2022-09-15T07:43:52.582Z,22.30
2022-09-15T07:46:20.650Z,18.15
2022-09-15T07:48:49.736Z,25.00
2022-09-15T07:51:17.294Z,24.17
2022-09-15T07:53:46.297Z,26.70
2022-09-15T07:56:13.511Z,26.95
2022-09-15T07:58:40.509Z,24.45
2022-09-15T08:01:11.249Z,20.90
2022-09-15T08:03:43.023Z,16.58
2022-09-15T08:06:10.148Z,25.88
2022-09-15T08:08:41.561Z,23.15
2022-09-15T08:11:12.211Z,25.17
2022-09-15T08:13:41.823Z,24.90
2022-09-15T08:16:11.175Z,23.63
2022-09-15T08:18:38.388Z,20.00
2022-09-15T08:21:11.121Z,26.67
2022-09-15T08:23:38.357Z,24.42
2022-09-15T08:26:13.638Z,25.30
2022-09-15T08:28:41.399Z,24.08
2022-09-15T08:31:11.463Z,26.35
2022-09-15T08:33:43.195Z,27.30
2022-09-15T08:36:12.397Z,26.85
2022-09-15T08:38:46.983Z,30.27
2022-09-15T08:41:22.693Z,18.73
2022-09-15T08:43:52.082Z,22.88
2022-09-15T08:46:24.064Z,20.48
2022-09-15T08:49:09.463Z,22.58
2022-09-15T08:51:47.400Z,20.63
2022-09-15T08:54:19.787Z,18.00
2022-09-15T08:56:47.846Z,17.95
2022-09-15T08:59:16.965Z,17.42
2022-09-15T09:01:57.446Z,16.48
2022-09-15T09:04:39.365Z,13.48
2022-09-15T09:07:18.012Z,17.90
2022-09-15T09:10:00.149Z,13.07
2022-09-15T09:15:07.541Z,15.13
2022-09-15T09:17:58.546Z,12.20
2022-09-15T09:20:34.203Z,13.13
2022-09-15T09:23:04.249Z,17.75
2022-09-15T09:25:31.285Z,13.23
2022-09-15T09:27:58.496Z,12.10
2022-09-15T09:30:27.713Z,20.73
2022-09-15T09:32:54.205Z,11.98
2022-09-15T09:35:43.500Z,11.82
2022-09-15T09:38:11.873Z,15.82
2022-09-15T09:40:41.742Z,12.65
2022-09-15T09:43:09.094Z,15.98
2022-09-15T09:45:35.953Z,10.77
2022-09-15T09:48:12.272Z,17.02
2022-09-15T09:50:44.555Z,14.68
2022-09-15T09:53:21.608Z,12.30
2022-09-15T09:55:48.183Z,9.82
2022-09-15T09:58:23.610Z,10.18
2022-09-15T10:00:51.826Z,8.32
2022-09-15T10:03:27.117Z,9.52
2022-09-15T10:06:19.126Z,6.55
2022-09-15T10:08:58.102Z,4.43
2022-09-15T10:11:43.011Z,6.75
2022-09-15T10:14:36.026Z,8.50
2022-09-15T10:17:13.005Z,8.88
2022-09-15T10:19:54.256Z,6.28
2022-09-15T10:22:36.558Z,4.77
2022-09-15T10:25:19.855Z,6.45
2022-09-15T10:28:14.572Z,6.93
2022-09-15T10:31:10.703Z,6.88
2022-09-15T10:33:42.658Z,4.40
2022-09-15T10:38:54.407Z,4.47
2022-09-15T10:41:26.531Z,5.75
2022-09-15T10:44:14.601Z,6.57
2022-09-15T10:46:53.459Z,8.07
2022-09-15T10:49:41.396Z,9.35
2022-09-15T10:52:27.983Z,4.30
2022-09-15T10:55:10.516Z,5.53
2022-09-15T10:57:55.709Z,7.47
2022-09-15T11:00:28.501Z,11.60
2022-09-15T11:03:31.818Z,6.95
2022-09-15T11:06:14.245Z,12.10
2022-09-15T11:09:08.892Z,7.38
2022-09-15T11:12:10.085Z,5.97
2022-09-15T11:14:39.658Z,5.78
2022-09-15T11:17:18.065Z,7.72
2022-09-15T11:20:06.463Z,6.35
2022-09-15T11:22:49.668Z,9.25
2022-09-15T11:25:23.369Z,8.68
2022-09-15T11:27:58.631Z,5.18
2022-09-15T11:30:32.202Z,5.00
2022-09-15T11:33:05.659Z,9.82
2022-09-15T11:35:54.547Z,4.07
2022-09-15T11:38:40.620Z,4.15
2022-09-15T11:41:15.812Z,5.22
2022-09-15T11:43:57.162Z,5.93
2022-09-15T11:47:08.649Z,4.80
2022-09-15T11:49:51.151Z,8.57
2022-09-15T11:52:42.963Z,8.85
2022-09-15T11:55:24.051Z,6.28
2022-09-15T11:58:05.505Z,5.22
2022-09-15T12:00:35.024Z,4.60
2022-09-15T12:03:26.260Z,6.03
2022-09-15T12:06:07.116Z,6.05
2022-09-15T12:08:57.798Z,5.10
2022-09-15T12:11:26.611Z,5.05
2022-09-15T12:13:54.719Z,5.15
2022-09-15T12:16:22.623Z,5.18
2022-09-15T12:19:02.167Z,5.18
2022-09-15T12:21:35.338Z,5.10
2022-09-15T12:24:13.377Z,5.18
2022-09-15T12:26:43.261Z,4.85
2022-09-15T12:29:22.089Z,4.35
2022-09-15T12:31:48.628Z,5.70
2022-09-15T12:34:38.553Z,10.68
2022-09-15T12:37:14.520Z,2.95
2022-09-15T12:39:46.066Z,3.88
2022-09-15T12:42:24.966Z,7.32
2022-09-15T12:44:56.282Z,5.32
2022-09-15T12:47:34.617Z,9.68
2022-09-15T12:50:27.313Z,9.23
2022-09-15T12:53:14.233Z,7.60
2022-09-15T12:55:56.108Z,5.80
2022-09-15T12:58:42.243Z,3.33
2022-09-15T13:01:26.683Z,6.28
2022-09-15T13:03:57.857Z,5.05
2022-09-15T13:06:27.091Z,4.03
2022-09-15T13:09:03.704Z,7.97
2022-09-15T13:11:39.158Z,3.85
2022-09-15T13:14:08.422Z,4.95
2022-09-15T13:16:48.690Z,7.05
2022-09-15T13:19:33.382Z,4.45
2022-09-15T13:22:16.420Z,6.25
2022-09-15T13:25:02.271Z,2.75
2022-09-15T13:27:43.133Z,4.15
2022-09-15T13:30:40.341Z,3.67
2022-09-15T13:40:27.223Z,4.40
2022-09-15T13:43:03.144Z,3.78
2022-09-15T13:45:48.513Z,5.80
2022-09-15T13:48:31.060Z,3.53
2022-09-15T13:51:01.135Z,4.18
2022-09-15T13:54:06.070Z,6.68
2022-09-15T13:56:38.476Z,5.03
2022-09-15T13:59:13.244Z,7.45
2022-09-15T14:01:42.550Z,7.38
2022-09-15T14:04:13.822Z,3.88
2022-09-15T14:06:45.721Z,4.15
2022-09-15T14:11:50.290Z,4.90
2022-09-15T14:14:38.955Z,4.28
2022-09-15T14:17:06.003Z,4.15
2022-09-15T14:19:36.704Z,10.38
2022-09-15T14:22:20.761Z,5.95
2022-09-15T14:24:47.731Z,5.57
2022-09-15T14:27:22.032Z,6.43
2022-09-15T14:29:54.424Z,5.15
2022-09-15T14:32:21.708Z,3.17
2022-09-15T14:34:48.933Z,7.88
2022-09-15T14:37:23.931Z,7.93
2022-09-15T14:39:56.534Z,2.92
2022-09-15T14:42:33.394Z,3.97
2022-09-15T14:48:01.541Z,3.58
2022-09-15T14:50:32.951Z,4.97
2022-09-15T14:53:20.028Z,3.70
2022-09-15T14:56:00.600Z,6.03
2022-09-15T14:58:33.625Z,6.32
2022-09-15T15:01:09.786Z,5.35
2022-09-15T15:03:58.872Z,7.38
2022-09-15T15:07:01.842Z,5.30
2022-09-15T15:09:37.697Z,5.00
2022-09-15T15:12:13.278Z,10.40
2022-09-15T15:14:42.534Z,5.10
2022-09-15T15:17:26.688Z,7.40
2022-09-15T15:20:22.963Z,6.38
2022-09-15T15:23:25.535Z,7.70
2022-09-15T15:25:53.151Z,5.13
2022-09-15T15:28:35.997Z,6.22
2022-09-15T15:31:21.766Z,7.13
2022-09-15T15:33:51.899Z,4.28
2022-09-15T15:36:26.283Z,6.35
2022-09-15T15:38:59.355Z,4.40
2022-09-15T15:41:27.015Z,4.97
2022-09-15T15:44:08.133Z,7.13
2022-09-15T15:47:02.878Z,4.45
2022-09-15T15:49:32.531Z,6.72
2022-09-15T15:52:00.625Z,6.00
2022-09-15T15:54:28.098Z,6.80
2022-09-15T15:56:55.297Z,4.95
2022-09-15T15:59:21.954Z,4.80
2022-09-15T16:01:55.539Z,4.88
2022-09-15T16:04:22.163Z,8.63
2022-09-15T16:06:48.824Z,8.25
2022-09-15T16:09:17.554Z,3.85
2022-09-15T16:11:44.256Z,6.55
2022-09-15T16:14:12.431Z,5.38
2022-09-15T16:16:39.312Z,5.22
2022-09-15T16:19:05.840Z,5.60
2022-09-15T16:21:37.402Z,7.43
2022-09-15T16:24:12.686Z,7.63
2022-09-15T16:26:39.867Z,7.50
2022-09-15T16:29:06.414Z,6.55
2022-09-15T16:31:33.997Z,5.40
2022-09-15T16:34:01.047Z,5.35
2022-09-15T16:36:27.707Z,7.80
2022-09-15T16:38:54.341Z,6.20
2022-09-15T16:41:23.707Z,6.70
2022-09-15T16:43:50.326Z,5.47
2022-09-15T16:46:17.420Z,7.38
2022-09-15T16:48:47.197Z,4.15
2022-09-15T16:51:25.229Z,10.07
2022-09-15T16:53:55.339Z,4.38
2022-09-15T16:56:21.861Z,7.20
2022-09-15T16:58:48.411Z,5.57
2022-09-15T17:01:20.271Z,7.82
2022-09-15T17:06:15.597Z,6.60
2022-09-15T17:08:42.670Z,5.53
2022-09-15T17:11:17.552Z,7.30
2022-09-15T17:13:44.904Z,5.25
2022-09-15T17:16:13.927Z,8.50
2022-09-15T17:18:40.717Z,12.73
2022-09-15T17:21:09.647Z,7.82
2022-09-15T17:23:38.959Z,10.10
2022-09-15T17:26:14.888Z,7.07
2022-09-15T17:28:42.281Z,5.75
2022-09-15T17:31:15.472Z,6.82
2022-09-15T17:33:42.530Z,6.90
2022-09-15T17:36:09.139Z,8.90
2022-09-15T17:38:35.716Z,4.88
2022-09-15T17:41:02.441Z,5.35
2022-09-15T17:43:30.686Z,9.63
2022-09-15T17:45:58.032Z,8.98
2022-09-15T17:48:24.748Z,6.47
2022-09-15T17:50:52.336Z,10.60
2022-09-15T17:53:21.456Z,7.65
2022-09-15T17:55:48.871Z,7.70
2022-09-15T17:58:15.915Z,6.72
2022-09-15T18:00:43.974Z,8.48
2022-09-15T18:03:27.871Z,7.80
2022-09-15T18:05:56.459Z,8.57
2022-09-15T18:08:23.237Z,6.53
2022-09-15T18:10:50.123Z,5.45
2022-09-15T18:13:19.712Z,9.75
2022-09-15T18:15:46.957Z,10.88
2022-09-15T18:18:16.869Z,10.52
2022-09-15T18:20:44.355Z,10.65
2022-09-15T18:23:16.357Z,7.43
2022-09-15T18:28:10.275Z,7.03
2022-09-15T18:30:41.832Z,9.43
2022-09-15T18:33:14.069Z,6.07
2022-09-15T18:35:41.247Z,9.93
2022-09-15T18:38:08.285Z,6.05
2022-09-15T18:40:35.017Z,5.97
2022-09-15T18:43:01.568Z,8.88
2022-09-15T18:45:28.736Z,7.55
2022-09-15T18:47:55.322Z,9.05
2022-09-15T18:50:24.206Z,10.05
2022-09-15T18:52:50.991Z,12.48
2022-09-15T18:55:20.286Z,7.57
2022-09-15T18:57:47.392Z,7.75
2022-09-15T19:00:22.617Z,10.07
2022-09-15T19:02:49.272Z,10.25
2022-09-15T19:05:16.658Z,5.65
2022-09-15T19:07:46.656Z,8.20
2022-09-15T19:10:14.468Z,8.85
2022-09-15T19:12:41.157Z,11.45
2022-09-15T19:15:11.315Z,6.80
2022-09-15T19:17:39.510Z,10.98
2022-09-15T19:20:08.301Z,6.10
2022-09-15T19:22:35.437Z,10.55
2022-09-15T19:25:02.016Z,10.95
2022-09-15T19:27:29.210Z,7.97
2022-09-15T19:29:55.745Z,7.72
2022-09-15T19:32:22.892Z,11.55
2022-09-15T19:34:49.730Z,9.50
2022-09-15T19:37:19.172Z,7.78
2022-09-15T19:39:47.410Z,10.32
2022-09-15T19:42:17.346Z,9.05
2022-09-15T19:44:44.648Z,11.40
2022-09-15T19:47:11.318Z,12.18
2022-09-15T19:49:37.876Z,9.23
2022-09-15T19:52:06.560Z,8.60
2022-09-15T19:54:34.427Z,10.45
2022-09-15T19:57:04.608Z,9.35
2022-09-15T19:59:32.080Z,12.27
2022-09-15T20:02:00.557Z,9.43
2022-09-15T20:07:12.592Z,11.02
2022-09-15T20:09:39.506Z,11.00
2022-09-15T20:12:06.162Z,9.10
2022-09-15T20:14:32.689Z,12.73
2022-09-15T20:17:01.175Z,17.50
2022-09-15T20:19:28.553Z,9.52
2022-09-15T20:21:55.151Z,14.18
2022-09-15T20:24:22.397Z,9.32
2022-09-15T20:26:49.437Z,11.10
2022-09-15T20:29:16.246Z,8.68
2022-09-15T20:31:43.562Z,7.97
2022-09-15T20:34:10.044Z,7.05
2022-09-15T20:36:38.978Z,12.07
2022-09-15T20:39:11.961Z,11.85
2022-09-15T20:41:39.967Z,7.97
2022-09-15T20:44:09.437Z,11.00
2022-09-15T20:46:36.674Z,14.13
2022-09-15T20:49:03.520Z,8.88
2022-09-15T20:51:31.766Z,10.88
2022-09-15T20:54:00.767Z,7.45
2022-09-15T20:56:29.207Z,11.98
2022-09-15T20:58:58.489Z,11.45
2022-09-15T21:01:28.113Z,13.98
2022-09-15T21:03:55.504Z,10.90
2022-09-15T21:06:24.811Z,8.70
2022-09-15T21:08:52.119Z,10.70
2022-09-15T21:11:20.541Z,13.68
2022-09-15T21:13:49.332Z,16.00
2022-09-15T21:16:22.125Z,15.00
2022-09-15T21:18:49.816Z,11.43
2022-09-15T21:21:20.765Z,13.73
2022-09-15T21:24:08.006Z,13.07
2022-09-15T21:26:56.333Z,13.45
2022-09-15T21:29:23.427Z,13.88
2022-09-15T21:31:50.441Z,14.15
2022-09-15T21:34:17.098Z,11.75
2022-09-15T21:36:43.670Z,10.65
2022-09-15T21:39:10.241Z,8.30
2022-09-15T21:41:36.802Z,8.48
2022-09-15T21:44:03.744Z,11.38
2022-09-15T21:46:31.398Z,12.45
2022-09-15T21:48:59.598Z,10.32
2022-09-15T21:51:28.396Z,11.82
2022-09-15T21:53:56.785Z,8.85
2022-09-15T21:56:24.839Z,15.55
2022-09-15T21:58:51.546Z,10.30
2022-09-15T22:01:27.980Z,12.98
2022-09-15T22:04:08.071Z,12.68
2022-09-15T22:06:37.314Z,11.55
2022-09-15T22:09:50.418Z,11.45
2022-09-15T22:12:17.007Z,11.77
2022-09-15T22:14:43.543Z,10.10
2022-09-15T22:17:10.115Z,8.07
2022-09-15T22:19:36.646Z,8.60
2022-09-15T22:22:03.265Z,11.77
2022-09-15T22:24:30.123Z,8.10
2022-09-15T22:26:56.629Z,5.55
2022-09-15T22:29:23.386Z,6.10
2022-09-15T22:31:50.082Z,11.57
2022-09-15T22:34:16.676Z,4.38
2022-09-15T22:36:43.302Z,6.35
2022-09-15T22:39:12.217Z,8.25
2022-09-15T22:41:39.984Z,8.88
2022-09-15T22:44:07.763Z,7.75
2022-09-15T22:46:34.594Z,9.45
2022-09-15T22:49:01.606Z,11.10
2022-09-15T22:51:28.155Z,7.68
2022-09-15T22:53:57.046Z,7.57
2022-09-15T22:56:25.979Z,6.13
2022-09-15T22:58:52.701Z,9.23
2022-09-15T23:01:21.969Z,8.63
2022-09-15T23:04:06.371Z,9.48
2022-09-15T23:06:34.440Z,6.70
2022-09-15T23:09:04.929Z,8.13
2022-09-15T23:11:33.280Z,6.00
2022-09-15T23:14:00.488Z,12.30
2022-09-15T23:16:27.277Z,13.13
2022-09-15T23:18:54.272Z,5.15
2022-09-15T23:21:21.473Z,11.18
2022-09-15T23:23:49.272Z,7.82
2022-09-15T23:26:20.931Z,7.40
2022-09-15T23:28:49.498Z,10.40
2022-09-15T23:31:17.104Z,8.27
2022-09-15T23:33:43.796Z,16.77
2022-09-15T23:36:13.007Z,7.90
2022-09-15T23:38:41.254Z,6.65
2022-09-15T23:41:08.977Z,12.65
2022-09-15T23:43:35.902Z,7.25
2022-09-15T23:46:03.484Z,14.18
2022-09-15T23:48:31.670Z,7.78
2022-09-15T23:50:58.488Z,4.53
2022-09-15T23:53:25.557Z,8.43
2022-09-15T23:55:52.369Z,12.55
2022-09-15T23:58:18.921Z,12.15
